Daihatsumaru — JD2764 — position and weather

sailwx.info

Track history (hours):
 
Tides and Currents Weather Stations Pressure Air Temp Water Temp Dewpoint Dewpoint Depression Visibility Wind Speed Wind Dir Waves Ship Positions

Daihatsumaru

Last reported at 2014-Dec-20 03:33 UTC. Time now 2014-Dec-20 03:43 UTC.
Position N 34°39' E 135°20'.

Length 106 m; draft 4.5 m.

Type: Cargo ship. MMSI: 431000701.

Date/timePositionNaut miles runAvg speedWind from/ knotsBaromVisibWave heightAir tempDewpointWater temp
2014-Dec-20 03:33N 34°39' E 135°20'3 2.7
2014-Dec-20 02:21N 34°41' E 135°23'0 0.0
2014-Dec-20 01:33N 34°41' E 135°23'0 0.0
2014-Dec-19 23:21N 34°41' E 135°23'2 2.4
2014-Dec-19 22:33N 34°40' E 135°21'1 0.7
2014-Dec-19 21:30N 34°40' E 135°21'0 0.0
2014-Dec-19 20:31N 34°40' E 135°21'1010.2
2014-Dec-19 19:34N 34°35' E 135°10'1111.1
2014-Dec-19 18:32N 34°36' E 134°57'  
2014-Dec-16 05:22N 34°36' E 134°55'1214.3
2014-Dec-16 04:33N 34°36' E 135°09'1312.9
2014-Dec-16 03:33N 34°41' E 135°23'0 0.0
2014-Dec-16 02:16N 34°41' E 135°23'0 0.0
2014-Dec-16 01:10N 34°41' E 135°23'0 0.0
2014-Dec-15 23:33N 34°41' E 135°23'2 1.8
2014-Dec-15 22:33N 34°40' E 135°22'1 0.8
2014-Dec-15 21:24N 34°40' E 135°21'0 0.0
2014-Dec-15 20:30N 34°40' E 135°21'4 4.5
2014-Dec-15 19:33N 34°37' E 135°17'1312.7
2014-Dec-15 18:33N 34°37' E 135°01'1312.9
2014-Dec-15 17:32N 34°32' E 134°46'  
2014-Dec-13 05:24N 34°37' E 134°57'1214.1
2014-Dec-13 04:33N 34°36' E 135°11'1111.0
2014-Dec-13 03:33N 34°41' E 135°23'0 0.0
2014-Dec-13 02:30N 34°41' E 135°23'0 0.0
2014-Dec-13 01:30N 34°41' E 135°23'0 0.0
2014-Dec-13 00:24N 34°41' E 135°23'0 0.0
2014-Dec-12 23:30N 34°41' E 135°23'2 2.5
2014-Dec-12 22:33N 34°40' E 135°21'0 0.3
2014-Dec-12 21:32N 34°40' E 135°21'0 0.0
2014-Dec-12 20:26N 34°40' E 135°21'0 0.1
2014-Dec-12 19:33N 34°40' E 135°21'1313.0
2014-Dec-12 18:33N 34°35' E 135°06'1514.3
2014-Dec-12 17:31N 34°33' E 134°48'12 0.3
2014-Dec-11 04:33N 34°37' E 135°01'1413.9
2014-Dec-11 03:33N 34°38' E 135°18'5 5.5
2014-Dec-11 02:33N 34°41' E 135°23'0 0.0
2014-Dec-11 01:33N 34°41' E 135°23'0 0.0
2014-Dec-11 00:21N 34°41' E 135°23'0 0.0
2014-Dec-10 23:33N 34°41' E 135°23'2 1.7
2014-Dec-10 22:33N 34°40' E 135°22'1 0.8
2014-Dec-10 21:31N 34°40' E 135°21'0 0.0
2014-Dec-10 20:31N 34°40' E 135°21'0 0.0
2014-Dec-10 19:34N 34°40' E 135°21'1111.2
2014-Dec-10 18:33N 34°35' E 135°09'1514.9
2014-Dec-10 17:33N 34°34' E 134°51'  
Track history (hours):
 
Tides and Currents Weather Stations Pressure Air Temp Water Temp Dewpoint Dewpoint Depression Visibility Wind Speed Wind Dir Waves Ship Positions

Daihatsumaru

Last reported at 2014-Dec-20 03:33 UTC. Time now 2014-Dec-20 03:43 UTC.
Position N 34°39' E 135°20'.

Length 106 m; draft 4.5 m.

Type: Cargo ship. MMSI: 431000701.

Date/timePositionNaut miles runAvg speedWind from/ knotsBaromVisibWave heightAir tempDewpointWater temp
2014-Dec-20 03:33N 34°39' E 135°20'3 2.7
2014-Dec-20 02:21N 34°41' E 135°23'0 0.0
2014-Dec-20 01:33N 34°41' E 135°23'0 0.0
2014-Dec-19 23:21N 34°41' E 135°23'2 2.4
2014-Dec-19 22:33N 34°40' E 135°21'1 0.7
2014-Dec-19 21:30N 34°40' E 135°21'0 0.0
2014-Dec-19 20:31N 34°40' E 135°21'1010.2
2014-Dec-19 19:34N 34°35' E 135°10'1111.1
2014-Dec-19 18:32N 34°36' E 134°57'  
2014-Dec-16 05:22N 34°36' E 134°55'1214.3
2014-Dec-16 04:33N 34°36' E 135°09'1312.9
2014-Dec-16 03:33N 34°41' E 135°23'0 0.0
2014-Dec-16 02:16N 34°41' E 135°23'0 0.0
2014-Dec-16 01:10N 34°41' E 135°23'0 0.0
2014-Dec-15 23:33N 34°41' E 135°23'2 1.8
2014-Dec-15 22:33N 34°40' E 135°22'1 0.8
2014-Dec-15 21:24N 34°40' E 135°21'0 0.0
2014-Dec-15 20:30N 34°40' E 135°21'4 4.5
2014-Dec-15 19:33N 34°37' E 135°17'1312.7
2014-Dec-15 18:33N 34°37' E 135°01'1312.9
2014-Dec-15 17:32N 34°32' E 134°46'  
2014-Dec-13 05:24N 34°37' E 134°57'1214.1
2014-Dec-13 04:33N 34°36' E 135°11'1111.0
2014-Dec-13 03:33N 34°41' E 135°23'0 0.0
2014-Dec-13 02:30N 34°41' E 135°23'0 0.0
2014-Dec-13 01:30N 34°41' E 135°23'0 0.0
2014-Dec-13 00:24N 34°41' E 135°23'0 0.0
2014-Dec-12 23:30N 34°41' E 135°23'2 2.5
2014-Dec-12 22:33N 34°40' E 135°21'0 0.3
2014-Dec-12 21:32N 34°40' E 135°21'0 0.0
2014-Dec-12 20:26N 34°40' E 135°21'0 0.1
2014-Dec-12 19:33N 34°40' E 135°21'1313.0
2014-Dec-12 18:33N 34°35' E 135°06'1514.3
2014-Dec-12 17:31N 34°33' E 134°48'12 0.3
2014-Dec-11 04:33N 34°37' E 135°01'1413.9
2014-Dec-11 03:33N 34°38' E 135°18'5 5.5
2014-Dec-11 02:33N 34°41' E 135°23'0 0.0
2014-Dec-11 01:33N 34°41' E 135°23'0 0.0
2014-Dec-11 00:21N 34°41' E 135°23'0 0.0
2014-Dec-10 23:33N 34°41' E 135°23'2 1.7
2014-Dec-10 22:33N 34°40' E 135°22'1 0.8
2014-Dec-10 21:31N 34°40' E 135°21'0 0.0
2014-Dec-10 20:31N 34°40' E 135°21'0 0.0
2014-Dec-10 19:34N 34°40' E 135°21'1111.2
2014-Dec-10 18:33N 34°35' E 135°09'1514.9
2014-Dec-10 17:33N 34°34' E 134°51'  

Dump ship's entire track history